Time;durP1;ratioP1;P1;durP2;ratioP2;P2;SDS_P1;SDS_P2;PMS_P1;PMS_P2;Temp;Humidity;BMP_temperature;BMP_pressure;BME280_temperature;BME280_humidity;BME280_pressure;Samples;Min_cycle;Max_cycle;Signal;HPM_P1;HPM_P2
2023/05/08 00:01:06;;;;;;;14.23;9.90;;;14.50;99.90;;;;;;4970380;28;20041;-85
2023/05/08 00:03:32;;;;;;;17.33;10.50;;;14.40;99.90;;;;;;4954456;28;20101;-86
2023/05/08 00:05:57;;;;;;;15.02;11.05;;;14.30;99.90;;;;;;4970333;28;20039;-86
2023/05/08 00:08:23;;;;;;;14.02;10.73;;;14.30;99.90;;;;;;4951377;28;20113;-86
2023/05/08 00:10:49;;;;;;;17.90;16.13;;;14.30;99.90;;;;;;4945937;28;20035;-86
2023/05/08 00:13:14;;;;;;;16.90;15.30;;;14.30;99.90;;;;;;4951259;29;20035;-86
2023/05/08 00:15:40;;;;;;;14.60;10.73;;;14.30;99.90;;;;;;4967739;28;20043;-86
2023/05/08 00:18:06;;;;;;;15.93;10.77;;;14.30;99.90;;;;;;4969894;28;20046;-86
2023/05/08 00:20:33;;;;;;;15.25;11.25;;;14.20;99.90;;;;;;4969630;28;20046;-86
2023/05/08 00:22:58;;;;;;;15.60;9.82;;;14.20;99.90;;;;;;4969565;28;20058;-86
2023/05/08 00:25:25;;;;;;;17.38;15.73;;;14.10;99.90;;;;;;4950322;28;20397;-86
2023/05/08 00:27:51;;;;;;;16.48;14.88;;;14.10;99.90;;;;;;4967235;28;20138;-86
2023/05/08 00:30:17;;;;;;;15.13;10.55;;;14.20;99.90;;;;;;4950596;28;20466;-86
2023/05/08 00:32:42;;;;;;;15.75;9.77;;;14.10;99.90;;;;;;4969921;28;20465;-86
2023/05/08 00:35:08;;;;;;;14.25;10.90;;;14.00;99.90;;;;;;4969493;28;20035;-86
2023/05/08 00:37:34;;;;;;;16.92;12.40;;;14.00;99.90;;;;;;4972001;28;20071;-86
2023/05/08 00:39:59;;;;;;;15.40;11.80;;;13.90;99.90;;;;;;4966753;28;20445;-86
2023/05/08 00:42:25;;;;;;;14.30;11.15;;;13.90;99.90;;;;;;4969659;28;20117;-86
2023/05/08 00:44:51;;;;;;;17.20;15.50;;;13.90;99.90;;;;;;4959988;28;20412;-86
2023/05/08 00:47:18;;;;;;;15.07;11.52;;;13.90;99.90;;;;;;4951939;28;20043;-86
2023/05/08 00:49:44;;;;;;;17.60;15.88;;;13.90;99.90;;;;;;4968816;28;20098;-86
2023/05/08 00:52:10;;;;;;;15.60;10.25;;;13.90;99.90;;;;;;4959675;28;20067;-86
2023/05/08 00:54:37;;;;;;;17.77;11.85;;;13.90;99.90;;;;;;4969267;28;20142;-86
2023/05/08 00:57:06;;;;;;;17.75;15.95;;;13.80;99.90;;;;;;4961907;28;20039;-85
2023/05/08 00:59:34;;;;;;;18.80;17.00;;;13.90;99.90;;;;;;4967461;28;20039;-85
2023/05/08 01:02:00;;;;;;;15.80;9.80;;;13.90;99.90;;;;;;4969730;28;20049;-86
2023/05/08 01:04:27;;;;;;;16.98;15.35;;;13.90;99.90;;;;;;4952466;28;20089;-85
2023/05/08 01:06:53;;;;;;;15.25;10.52;;;13.90;99.90;;;;;;4969516;28;20084;-86
2023/05/08 01:09:18;;;;;;;17.45;15.85;;;13.80;99.90;;;;;;4958694;28;20070;-86
2023/05/08 01:12:01;;;;;;;16.25;14.65;;;13.80;99.90;;;;;;4973362;28;20050;-85
2023/05/08 01:15:02;;;;;;;15.52;10.07;;;13.90;99.90;;;;;;4973585;28;20038;-86
2023/05/08 01:17:40;;;;;;;16.38;14.88;;;13.80;99.90;;;;;;4942052;29;20106;-86
2023/05/08 01:20:23;;;;;;;16.33;14.63;;;13.80;99.90;;;;;;4953154;28;20454;-86
2023/05/08 01:23:35;;;;;;;15.15;10.18;;;13.80;99.90;;;;;;4963353;28;20098;-85
2023/05/08 01:26:15;;;;;;;14.45;9.23;;;13.70;99.90;;;;;;4971914;28;20061;-86
2023/05/08 01:29:06;;;;;;;16.42;14.80;;;13.60;99.90;;;;;;4972836;28;20181;-86
2023/05/08 01:32:10;;;;;;;14.70;9.88;;;13.60;99.90;;;;;;4967190;28;20042;-85
2023/05/08 01:34:45;;;;;;;12.82;8.65;;;13.50;99.90;;;;;;4953145;28;20109;-85
2023/05/08 01:37:15;;;;;;;15.85;14.23;;;13.40;99.90;;;;;;4973043;28;20039;-85
2023/05/08 01:40:03;;;;;;;13.57;9.52;;;13.40;99.90;;;;;;4972780;28;20049;-85
2023/05/08 01:42:46;;;;;;;15.82;9.55;;;13.40;99.90;;;;;;4966324;28;20039;-85
2023/05/08 01:45:27;;;;;;;15.93;10.75;;;13.30;99.90;;;;;;4973323;28;20062;-85
2023/05/08 01:48:03;;;;;;;15.82;11.32;;;13.20;99.90;;;;;;4973216;28;20070;-85
2023/05/08 01:50:37;;;;;;;15.48;10.18;;;13.20;99.90;;;;;;4980433;28;20058;-85
2023/05/08 01:53:09;;;;;;;17.08;15.27;;;13.10;99.90;;;;;;4950798;29;20453;-85
2023/05/08 01:55:36;;;;;;;18.02;16.27;;;13.20;99.90;;;;;;4964452;28;20035;-85
2023/05/08 01:58:08;;;;;;;16.60;14.93;;;13.20;99.90;;;;;;4972852;28;20042;-85
2023/05/08 02:00:37;;;;;;;14.63;9.50;;;13.20;99.90;;;;;;4972629;28;20150;-85
2023/05/08 02:03:06;;;;;;;17.15;15.45;;;13.10;99.90;;;;;;4972287;28;20413;-85
2023/05/08 02:05:36;;;;;;;16.85;15.25;;;13.10;99.90;;;;;;4972528;28;20118;-85
2023/05/08 02:08:03;;;;;;;15.55;10.15;;;13.10;99.90;;;;;;4953412;28;20122;-85
2023/05/08 02:10:29;;;;;;;14.85;9.60;;;13.00;99.90;;;;;;4953177;28;20063;-85
2023/05/08 02:12:57;;;;;;;15.18;10.15;;;12.90;99.90;;;;;;4972930;28;20065;-85
2023/05/08 02:15:24;;;;;;;14.75;9.95;;;12.90;99.90;;;;;;4956163;28;20097;-85
2023/05/08 02:17:53;;;;;;;14.65;10.48;;;12.80;99.90;;;;;;4972450;28;20089;-85
2023/05/08 02:20:20;;;;;;;15.05;9.52;;;12.80;99.90;;;;;;4971326;28;20042;-85
2023/05/08 02:22:49;;;;;;;16.13;10.13;;;12.70;99.90;;;;;;4972327;28;20127;-85
2023/05/08 02:25:15;;;;;;;17.02;15.43;;;12.70;99.90;;;;;;4964055;28;20038;-85
2023/05/08 02:27:44;;;;;;;14.50;9.52;;;12.70;99.90;;;;;;4968017;28;20510;-85
2023/05/08 02:30:15;;;;;;;14.35;9.00;;;12.70;99.90;;;;;;4964675;28;20069;-85
2023/05/08 02:32:46;;;;;;;13.38;8.80;;;12.60;99.90;;;;;;4972260;28;20050;-85
2023/05/08 02:35:14;;;;;;;15.93;10.32;;;12.50;99.90;;;;;;4953218;28;20038;-85
2023/05/08 02:37:42;;;;;;;14.18;9.82;;;12.50;99.90;;;;;;4972875;28;20027;-85
2023/05/08 02:40:10;;;;;;;13.60;10.02;;;12.40;99.90;;;;;;4971524;28;20043;-85
2023/05/08 02:42:36;;;;;;;14.48;9.13;;;12.40;99.90;;;;;;4972013;28;20047;-85
2023/05/08 02:45:03;;;;;;;13.75;9.27;;;12.40;99.90;;;;;;4972176;28;20050;-85
2023/05/08 02:48:00;;;;;;;15.48;9.68;;;12.40;99.90;;;;;;4970583;28;20464;-85
2023/05/08 02:50:37;;;;;;;16.05;14.55;;;12.40;99.90;;;;;;4947711;28;20051;-85
2023/05/08 02:53:08;;;;;;;13.88;9.23;;;12.40;99.90;;;;;;4970712;28;20038;-85
2023/05/08 02:55:49;;;;;;;15.27;8.80;;;12.30;99.90;;;;;;4947880;28;20085;-85
2023/05/08 02:58:33;;;;;;;14.32;8.52;;;12.30;99.90;;;;;;4972230;28;20096;-85
2023/05/08 03:01:07;;;;;;;16.40;9.13;;;12.20;99.90;;;;;;4971541;28;20042;-85
2023/05/08 03:03:39;;;;;;;14.50;9.23;;;12.20;99.90;;;;;;4971571;28;20038;-85
2023/05/08 03:06:12;;;;;;;14.43;9.93;;;12.20;99.90;;;;;;4968052;28;20123;-85
2023/05/08 03:08:40;;;;;;;15.77;9.57;;;12.10;99.90;;;;;;4954479;28;20466;-86
2023/05/08 03:11:24;;;;;;;15.40;9.68;;;12.10;99.90;;;;;;4971035;28;20097;-85
2023/05/08 03:13:56;;;;;;;15.48;10.00;;;12.10;99.90;;;;;;4966351;28;20074;-85
2023/05/08 03:16:24;;;;;;;14.68;10.05;;;12.10;99.90;;;;;;4971691;28;20077;-85
2023/05/08 03:18:58;;;;;;;12.25;8.57;;;12.10;99.90;;;;;;4970449;28;20046;-85
2023/05/08 03:21:28;;;;;;;14.27;8.45;;;12.10;99.90;;;;;;4954905;28;20085;-85
2023/05/08 03:23:56;;;;;;;13.65;8.73;;;12.10;99.90;;;;;;4970643;28;20125;-85
2023/05/08 03:26:22;;;;;;;14.13;8.60;;;12.00;99.90;;;;;;4967049;28;20039;-85
2023/05/08 03:28:48;;;;;;;13.40;9.02;;;12.00;99.90;;;;;;4968008;28;20042;-85
2023/05/08 03:31:19;;;;;;;14.70;9.73;;;12.00;99.90;;;;;;4970425;28;20043;-85
2023/05/08 03:33:46;;;;;;;16.33;14.73;;;11.90;99.90;;;;;;4969554;28;20042;-85
2023/05/08 03:36:12;;;;;;;14.50;9.10;;;12.00;99.90;;;;;;4964308;28;20097;-85
2023/05/08 03:38:39;;;;;;;15.48;9.25;;;12.00;99.90;;;;;;4954526;28;20039;-86
2023/05/08 03:41:05;;;;;;;13.88;8.80;;;11.90;99.90;;;;;;4970330;28;20455;-85
2023/05/08 03:43:31;;;;;;;14.18;10.13;;;11.90;99.90;;;;;;4951976;28;20485;-85
2023/05/08 03:45:57;;;;;;;13.85;8.30;;;11.90;99.90;;;;;;4967311;28;20094;-85
2023/05/08 03:48:24;;;;;;;14.90;9.27;;;11.80;99.90;;;;;;4969623;28;20031;-85
2023/05/08 03:50:50;;;;;;;13.30;8.45;;;11.80;99.90;;;;;;4954077;28;20077;-85
2023/05/08 03:53:16;;;;;;;13.48;8.35;;;11.90;99.90;;;;;;4952898;28;20077;-85
2023/05/08 03:55:42;;;;;;;16.67;14.98;;;11.80;99.90;;;;;;4952841;28;20477;-85
2023/05/08 03:58:10;;;;;;;16.13;14.52;;;11.90;99.90;;;;;;4952304;28;20504;-85
2023/05/08 04:01:00;;;;;;;13.27;8.25;;;12.00;99.90;;;;;;4974359;28;20043;-85
2023/05/08 04:03:40;;;;;;;14.27;8.68;;;11.90;99.90;;;;;;4969904;28;20082;-85
2023/05/08 04:06:19;;;;;;;16.15;9.25;;;11.90;99.90;;;;;;4970507;28;20062;-85
2023/05/08 04:08:50;;;;;;;13.32;8.77;;;11.80;99.90;;;;;;4952622;28;20142;-85
2023/05/08 04:11:31;;;;;;;14.52;8.57;;;11.80;99.90;;;;;;4951154;28;20050;-85
2023/05/08 04:14:02;;;;;;;13.25;8.25;;;11.80;99.90;;;;;;4970199;28;20039;-85
2023/05/08 04:16:29;;;;;;;16.52;9.30;;;11.80;99.90;;;;;;4953567;28;20035;-85
2023/05/08 04:19:03;;;;;;;15.10;8.75;;;11.80;99.90;;;;;;4950912;28;20035;-85
2023/05/08 04:21:34;;;;;;;13.15;8.27;;;11.80;99.90;;;;;;4968718;28;20034;-85
2023/05/08 04:24:02;;;;;;;18.25;9.73;;;11.70;99.90;;;;;;4969611;28;20054;-84
2023/05/08 04:26:28;;;;;;;14.27;9.18;;;11.80;99.90;;;;;;4954255;28;20064;-84
2023/05/08 04:28:55;;;;;;;17.05;15.35;;;11.80;99.90;;;;;;4969667;28;20631;-85
2023/05/08 04:31:22;;;;;;;14.05;8.75;;;11.80;99.90;;;;;;4969339;28;20174;-85
2023/05/08 04:33:48;;;;;;;13.15;8.10;;;11.80;99.90;;;;;;4970528;28;20058;-85
2023/05/08 04:36:14;;;;;;;13.63;8.93;;;11.80;99.90;;;;;;4970082;28;20041;-85
2023/05/08 04:38:40;;;;;;;13.77;8.82;;;11.80;99.90;;;;;;4969249;28;20051;-86
2023/05/08 04:41:07;;;;;;;13.85;8.98;;;11.80;99.90;;;;;;4953788;28;20039;-85
2023/05/08 04:43:34;;;;;;;13.77;9.63;;;11.80;99.90;;;;;;4966826;28;20440;-85
2023/05/08 04:45:59;;;;;;;14.57;8.95;;;11.80;99.90;;;;;;4970041;28;20035;-86
2023/05/08 04:48:25;;;;;;;14.18;8.95;;;11.80;99.90;;;;;;4968974;28;20408;-86
2023/05/08 04:50:51;;;;;;;15.70;8.60;;;11.80;99.90;;;;;;4969559;28;20038;-85
2023/05/08 04:53:16;;;;;;;13.85;9.30;;;11.80;99.90;;;;;;4950702;28;20528;-86
2023/05/08 04:55:42;;;;;;;13.60;9.00;;;11.80;99.90;;;;;;4957760;28;20047;-85
2023/05/08 04:58:09;;;;;;;16.25;14.55;;;11.90;99.90;;;;;;4969336;28;20031;-86
2023/05/08 05:00:35;;;;;;;17.17;9.77;;;11.90;99.90;;;;;;4967468;28;20039;-85
2023/05/08 05:03:01;;;;;;;13.85;8.75;;;11.90;99.90;;;;;;4968993;28;20051;-86
2023/05/08 05:05:26;;;;;;;14.20;9.15;;;11.90;99.90;;;;;;4950824;28;20085;-85
2023/05/08 05:07:52;;;;;;;13.02;8.50;;;11.90;99.90;;;;;;4951781;28;20116;-86
2023/05/08 05:10:17;;;;;;;13.27;8.63;;;11.80;99.90;;;;;;4966156;28;20069;-86
2023/05/08 05:12:43;;;;;;;16.77;8.85;;;11.80;99.90;;;;;;4950909;28;20484;-85
2023/05/08 05:15:09;;;;;;;12.98;8.20;;;11.80;99.90;;;;;;4969070;28;20063;-86
2023/05/08 05:17:35;;;;;;;14.27;8.88;;;11.80;99.90;;;;;;4969565;28;20544;-86
2023/05/08 05:20:00;;;;;;;14.73;9.43;;;11.80;99.90;;;;;;4970203;28;20031;-86
2023/05/08 05:22:27;;;;;;;15.35;8.93;;;11.80;99.90;;;;;;4969263;28;20544;-85
2023/05/08 05:24:53;;;;;;;13.13;8.43;;;11.90;99.90;;;;;;4969141;28;20508;-86
2023/05/08 05:27:18;;;;;;;12.68;8.05;;;11.80;99.90;;;;;;4952249;28;20054;-85
2023/05/08 05:29:45;;;;;;;13.07;8.48;;;11.80;99.90;;;;;;4968450;28;20039;-86
2023/05/08 05:32:10;;;;;;;13.63;9.35;;;11.90;99.90;;;;;;4968458;28;20045;-86
2023/05/08 05:34:36;;;;;;;13.13;8.05;;;11.90;99.90;;;;;;4952697;28;20034;-86
2023/05/08 05:37:02;;;;;;;13.20;9.13;;;12.00;99.90;;;;;;4952905;28;20085;-86
2023/05/08 05:39:28;;;;;;;13.45;7.97;;;12.00;99.90;;;;;;4969282;28;20050;-86
2023/05/08 05:41:53;;;;;;;12.80;8.57;;;12.10;99.90;;;;;;4952432;28;20629;-86
2023/05/08 05:44:19;;;;;;;13.52;8.48;;;12.20;99.90;;;;;;4951462;28;20053;-86
2023/05/08 05:46:44;;;;;;;13.52;7.93;;;12.20;99.90;;;;;;4966881;28;20461;-86
2023/05/08 05:49:11;;;;;;;13.18;8.25;;;12.20;99.90;;;;;;4967335;28;20066;-86
2023/05/08 05:51:36;;;;;;;13.00;7.63;;;12.30;99.90;;;;;;4948752;28;20084;-86
2023/05/08 05:54:02;;;;;;;13.93;12.55;;;12.30;99.90;;;;;;4965221;28;20155;-86
2023/05/08 05:56:27;;;;;;;12.55;8.50;;;12.50;99.90;;;;;;4970899;28;20141;-86
2023/05/08 05:58:53;;;;;;;12.40;7.55;;;12.50;99.90;;;;;;4956343;28;20035;-86
2023/05/08 06:01:19;;;;;;;12.13;7.65;;;12.60;99.90;;;;;;4955959;28;20070;-86
2023/05/08 06:03:45;;;;;;;13.57;8.98;;;12.60;99.90;;;;;;4973160;28;20030;-87
2023/05/08 06:06:11;;;;;;;14.02;8.70;;;12.60;99.90;;;;;;4972413;28;20489;-87
2023/05/08 06:08:36;;;;;;;14.38;12.88;;;12.70;99.90;;;;;;4972790;28;20030;-86
2023/05/08 06:11:02;;;;;;;12.85;7.97;;;12.70;99.90;;;;;;4956937;28;20045;-86
2023/05/08 06:13:28;;;;;;;13.43;8.05;;;12.80;99.90;;;;;;4972740;28;20489;-86
2023/05/08 06:15:57;;;;;;;12.45;8.98;;;12.80;99.90;;;;;;4973331;28;20042;-86
2023/05/08 06:18:23;;;;;;;13.50;7.82;;;12.90;99.90;;;;;;4956281;28;20042;-87
2023/05/08 06:20:53;;;;;;;10.77;7.55;;;12.90;99.90;;;;;;4956777;28;20463;-86
2023/05/08 06:23:19;;;;;;;13.00;8.63;;;13.00;99.90;;;;;;4953680;28;20105;-86
2023/05/08 06:25:44;;;;;;;12.18;8.35;;;13.00;99.90;;;;;;4956223;28;20496;-86
2023/05/08 06:28:10;;;;;;;13.25;8.10;;;13.10;99.90;;;;;;4972182;28;20042;-86
2023/05/08 06:30:35;;;;;;;13.90;7.75;;;13.20;99.90;;;;;;4971648;28;20598;-87
2023/05/08 06:33:01;;;;;;;13.30;12.00;;;13.20;99.90;;;;;;4956698;28;20035;-86
2023/05/08 06:35:27;;;;;;;14.60;13.10;;;13.40;99.90;;;;;;4948257;28;20505;-86
2023/05/08 06:37:52;;;;;;;13.80;12.40;;;13.40;99.90;;;;;;4960531;28;20122;-86
2023/05/08 06:40:18;;;;;;;14.02;7.93;;;13.60;99.90;;;;;;4968003;28;20042;-86
2023/05/08 06:42:43;;;;;;;13.27;11.88;;;13.60;99.90;;;;;;4955887;28;20142;-87
2023/05/08 06:45:09;;;;;;;11.85;7.63;;;13.70;99.90;;;;;;4947473;28;20578;-86
2023/05/08 06:47:35;;;;;;;12.50;7.80;;;13.80;99.90;;;;;;4954664;28;20182;-86
2023/05/08 06:50:01;;;;;;;13.10;8.52;;;13.80;99.90;;;;;;4952765;28;20655;-86
2023/05/08 06:52:27;;;;;;;12.88;8.60;;;13.80;99.90;;;;;;4952512;28;20089;-86
2023/05/08 06:54:52;;;;;;;14.18;12.77;;;13.90;99.90;;;;;;4955298;28;20117;-87
2023/05/08 06:57:18;;;;;;;13.95;12.60;;;14.00;99.90;;;;;;4952627;29;20035;-86
2023/05/08 06:59:43;;;;;;;14.32;12.93;;;14.10;99.90;;;;;;4953905;28;20035;-87
2023/05/08 07:02:10;;;;;;;12.93;8.73;;;14.20;99.90;;;;;;4951432;28;20034;-87
2023/05/08 07:04:36;;;;;;;13.70;12.23;;;14.20;99.90;;;;;;4969158;28;20043;-87
2023/05/08 07:07:01;;;;;;;13.88;12.48;;;14.30;99.90;;;;;;4955077;28;20046;-87
2023/05/08 07:09:27;;;;;;;12.80;8.57;;;14.40;99.90;;;;;;4971426;28;20039;-87
2023/05/08 07:11:53;;;;;;;14.10;12.68;;;14.50;99.90;;;;;;4955982;28;20117;-87
2023/05/08 07:14:18;;;;;;;13.27;11.95;;;14.60;99.90;;;;;;4960070;28;20098;-86
2023/05/08 07:16:44;;;;;;;13.32;11.77;;;14.70;99.90;;;;;;4953222;28;20466;-86
2023/05/08 07:19:10;;;;;;;13.75;12.35;;;14.80;99.90;;;;;;4952323;28;20061;-87
2023/05/08 07:21:36;;;;;;;14.07;8.30;;;14.80;99.90;;;;;;4970349;28;20114;-87
2023/05/08 07:24:01;;;;;;;13.57;9.85;;;14.90;99.90;;;;;;4955939;28;20045;-86
2023/05/08 07:26:27;;;;;;;13.32;12.02;;;14.90;99.90;;;;;;4955150;28;20039;-87
2023/05/08 07:28:53;;;;;;;13.07;8.95;;;15.10;99.90;;;;;;4955586;28;20101;-87
2023/05/08 07:31:19;;;;;;;12.68;9.23;;;15.10;99.90;;;;;;4954899;28;20046;-87
2023/05/08 07:33:46;;;;;;;12.60;8.23;;;15.10;99.90;;;;;;4955842;28;20145;-87
2023/05/08 07:36:12;;;;;;;14.38;12.63;;;15.20;99.90;;;;;;4972186;28;20492;-87
2023/05/08 07:38:37;;;;;;;14.27;12.70;;;15.30;99.90;;;;;;4965081;28;20043;-87
2023/05/08 07:41:04;;;;;;;12.32;8.95;;;15.50;99.90;;;;;;4971204;28;20045;-87
2023/05/08 07:43:30;;;;;;;14.35;12.50;;;15.50;99.90;;;;;;4970465;28;20041;-87
2023/05/08 07:45:57;;;;;;;15.05;9.95;;;15.60;99.90;;;;;;4954364;28;20038;-87
2023/05/08 07:48:22;;;;;;;13.85;12.45;;;15.70;99.90;;;;;;4943551;29;20102;-87
2023/05/08 07:50:49;;;;;;;13.93;12.52;;;15.80;99.90;;;;;;4965254;28;20624;-87
2023/05/08 07:53:15;;;;;;;13.82;12.20;;;15.90;99.90;;;;;;4954521;28;20174;-87
2023/05/08 07:55:41;;;;;;;14.63;13.02;;;15.90;99.90;;;;;;4944990;28;20120;-87
2023/05/08 07:58:06;;;;;;;13.70;12.30;;;16.00;99.90;;;;;;4969714;28;20039;-88
2023/05/08 08:00:32;;;;;;;14.38;10.57;;;16.00;99.90;;;;;;4970229;28;20041;-87
2023/05/08 08:02:58;;;;;;;13.13;11.60;;;16.00;99.90;;;;;;4957893;28;20050;-87
2023/05/08 08:05:24;;;;;;;14.05;12.55;;;16.00;99.90;;;;;;4954151;28;20043;-88
2023/05/08 08:07:49;;;;;;;13.48;12.07;;;16.20;99.90;;;;;;4956642;28;20039;-87
2023/05/08 08:10:15;;;;;;;14.77;13.07;;;16.30;99.90;;;;;;4968381;28;20457;-87
2023/05/08 08:12:40;;;;;;;13.27;10.40;;;16.40;99.90;;;;;;4951552;28;20050;-87
2023/05/08 08:15:06;;;;;;;14.75;13.00;;;16.40;99.90;;;;;;4964949;28;20412;-87
2023/05/08 08:17:32;;;;;;;14.35;12.93;;;16.50;99.90;;;;;;4970234;28;20058;-87
2023/05/08 08:19:58;;;;;;;14.55;13.00;;;16.60;99.90;;;;;;4953310;28;20043;-87
2023/05/08 08:22:24;;;;;;;14.45;12.60;;;16.70;99.90;;;;;;4954153;28;20046;-88
2023/05/08 08:24:50;;;;;;;14.85;13.35;;;16.80;99.90;;;;;;4957674;28;20130;-87
2023/05/08 08:27:16;;;;;;;13.60;10.70;;;16.90;99.90;;;;;;4966139;28;20126;-87
2023/05/08 08:29:41;;;;;;;15.20;13.60;;;16.90;99.90;;;;;;4954012;28;20034;-87
2023/05/08 08:32:07;;;;;;;15.23;13.60;;;16.90;99.90;;;;;;4970081;28;20039;-88
2023/05/08 08:34:33;;;;;;;15.35;11.50;;;17.00;99.90;;;;;;4952854;28;20042;-87
2023/05/08 08:36:59;;;;;;;13.88;12.55;;;17.10;99.90;;;;;;4969783;28;20041;-88
2023/05/08 08:39:24;;;;;;;14.60;13.10;;;17.20;99.90;;;;;;4969821;28;20567;-88
2023/05/08 08:41:50;;;;;;;14.18;12.77;;;17.30;99.60;;;;;;4969790;28;20488;-88
2023/05/08 08:44:15;;;;;;;14.35;12.95;;;17.40;97.50;;;;;;4950599;28;20038;-88
2023/05/08 08:46:49;;;;;;;14.55;13.05;;;17.50;98.60;;;;;;4960449;28;20042;-87
2023/05/08 08:49:18;;;;;;;14.85;13.30;;;17.60;98.80;;;;;;4955898;28;20046;-88
2023/05/08 08:51:53;;;;;;;15.07;13.38;;;17.70;98.10;;;;;;4952121;28;20055;-88
2023/05/08 08:54:32;;;;;;;15.38;13.98;;;17.80;99.90;;;;;;4969856;28;20047;-88
2023/05/08 08:57:02;;;;;;;15.43;13.68;;;17.90;98.40;;;;;;4949051;28;20043;-87
2023/05/08 08:59:28;;;;;;;15.05;13.40;;;18.10;96.60;;;;;;4945777;28;20078;-88
2023/05/08 09:02:04;;;;;;;14.63;13.23;;;18.10;95.90;;;;;;4953074;28;20043;-88
2023/05/08 09:04:30;;;;;;;15.55;13.68;;;18.20;96.40;;;;;;4950206;28;20039;-88
2023/05/08 09:06:57;;;;;;;15.00;13.50;;;18.30;95.80;;;;;;4951822;28;20046;-88
2023/05/08 09:09:23;;;;;;;14.07;12.60;;;18.40;95.50;;;;;;4967924;28;20117;-88
2023/05/08 09:11:51;;;;;;;16.35;13.30;;;18.50;95.10;;;;;;4967742;28;20420;-88
2023/05/08 09:14:16;;;;;;;13.70;12.32;;;18.60;93.90;;;;;;4967685;28;20133;-88
2023/05/08 09:16:42;;;;;;;14.77;13.27;;;18.70;94.60;;;;;;4971712;28;20117;-88
2023/05/08 09:19:09;;;;;;;15.13;13.57;;;18.90;93.50;;;;;;4972805;28;20090;-88
2023/05/08 09:21:35;;;;;;;15.77;14.27;;;18.90;92.90;;;;;;4975488;28;20035;-88
2023/05/08 09:24:03;;;;;;;15.27;13.88;;;19.10;92.70;;;;;;4975792;28;20035;-89
2023/05/08 09:26:34;;;;;;;15.50;14.00;;;19.10;92.00;;;;;;4976831;28;20507;-88
2023/05/08 09:29:23;;;;;;;15.25;13.68;;;19.20;92.10;;;;;;4959564;28;20484;-88
2023/05/08 09:31:50;;;;;;;14.45;13.05;;;19.30;90.20;;;;;;4976028;28;20496;-88
2023/05/08 09:34:24;;;;;;;16.05;14.50;;;19.40;90.60;;;;;;4981545;28;20049;-89
2023/05/08 09:36:49;;;;;;;13.95;12.55;;;19.50;90.50;;;;;;4981049;28;20054;-88
2023/05/08 09:39:22;;;;;;;15.27;13.77;;;19.60;90.90;;;;;;4982513;28;20039;-89
2023/05/08 09:42:02;;;;;;;15.10;13.25;;;19.60;87.90;;;;;;4979263;28;20054;-88
2023/05/08 09:44:27;;;;;;;15.10;12.68;;;19.60;89.40;;;;;;4994552;28;20034;-88
2023/05/08 09:47:12;;;;;;;14.48;12.98;;;19.70;91.00;;;;;;4982063;28;20057;-88
2023/05/08 09:49:39;;;;;;;15.20;13.55;;;19.80;90.00;;;;;;4981445;28;20061;-88
2023/05/08 09:52:06;;;;;;;13.27;11.88;;;19.90;87.90;;;;;;4966983;28;20296;-88
2023/05/08 09:54:31;;;;;;;14.40;12.90;;;20.00;86.30;;;;;;4984315;28;20522;-89
2023/05/08 09:56:57;;;;;;;14.02;12.57;;;20.10;89.50;;;;;;4966452;28;20046;-88
2023/05/08 09:59:25;;;;;;;14.38;12.85;;;20.20;87.60;;;;;;4978900;28;20027;-88
2023/05/08 10:01:51;;;;;;;13.27;11.88;;;20.30;87.00;;;;;;4980084;28;20275;-88
2023/05/08 10:04:29;;;;;;;14.70;13.30;;;20.50;87.50;;;;;;4961560;28;20065;-89
2023/05/08 10:06:58;;;;;;;13.77;11.85;;;20.50;84.10;;;;;;4979892;28;20042;-88
2023/05/08 10:09:24;;;;;;;14.00;12.63;;;20.50;83.50;;;;;;4963872;28;20049;-88
2023/05/08 10:11:51;;;;;;;14.35;12.90;;;20.50;84.70;;;;;;4981523;28;20034;-88
2023/05/08 10:14:17;;;;;;;13.75;12.35;;;20.50;83.80;;;;;;4981599;28;20039;-88
2023/05/08 10:16:45;;;;;;;13.90;12.48;;;20.50;82.80;;;;;;4980864;28;20160;-88
2023/05/08 10:19:13;;;;;;;13.73;12.27;;;20.50;83.20;;;;;;4996718;28;20488;-88
2023/05/08 10:21:43;;;;;;;14.80;13.05;;;20.60;83.80;;;;;;4966098;28;20110;-88
2023/05/08 10:24:19;;;;;;;15.02;13.63;;;20.80;83.50;;;;;;4965005;28;20501;-88
2023/05/08 10:27:12;;;;;;;14.88;13.32;;;20.80;82.30;;;;;;4998356;28;20046;-88
2023/05/08 10:29:54;;;;;;;15.52;14.02;;;20.80;83.70;;;;;;4964908;28;20058;-88
2023/05/08 10:32:22;;;;;;;15.77;14.18;;;20.70;82.30;;;;;;4981521;28;20134;-88
2023/05/08 10:35:09;;;;;;;16.15;14.65;;;20.70;83.20;;;;;;4978963;28;20185;-88
2023/05/08 10:37:36;;;;;;;16.02;14.38;;;20.70;82.70;;;;;;4972420;28;20042;-88
2023/05/08 10:40:03;;;;;;;16.45;14.75;;;20.70;82.30;;;;;;4972072;28;20062;-88
2023/05/08 10:42:29;;;;;;;17.10;15.30;;;20.90;84.80;;;;;;4971824;28;20034;-88
2023/05/08 10:44:56;;;;;;;16.58;14.88;;;21.00;83.70;;;;;;4952567;28;20039;-88
2023/05/08 10:47:32;;;;;;;17.20;15.50;;;21.10;82.90;;;;;;4951658;28;20039;-88
2023/05/08 10:50:08;;;;;;;17.80;16.10;;;21.00;81.40;;;;;;4952217;28;20501;-88
2023/05/08 10:52:46;;;;;;;16.58;14.88;;;21.00;81.80;;;;;;4953413;28;20081;-88
2023/05/08 10:55:24;;;;;;;17.63;15.93;;;20.90;81.50;;;;;;4973043;28;20084;-88
2023/05/08 10:58:03;;;;;;;17.00;15.40;;;21.00;82.80;;;;;;4973264;28;20038;-88
2023/05/08 11:00:52;;;;;;;17.05;15.25;;;21.10;83.40;;;;;;4962468;28;20042;-88
2023/05/08 11:03:19;;;;;;;16.35;14.75;;;21.30;87.50;;;;;;4980688;28;20061;-88
2023/05/08 11:05:46;;;;;;;15.90;14.38;;;21.40;88.20;;;;;;4979382;28;20069;-88
2023/05/08 11:08:31;;;;;;;16.33;14.68;;;21.60;83.60;;;;;;4981175;28;20042;-89
2023/05/08 11:11:00;;;;;;;14.18;12.75;;;21.70;83.00;;;;;;4978010;28;20050;-88
2023/05/08 11:13:35;;;;;;;16.67;14.98;;;21.90;83.10;;;;;;4977650;28;20515;-88
2023/05/08 11:16:02;;;;;;;14.82;13.27;;;22.00;79.90;;;;;;4982340;28;20334;-88
2023/05/08 11:18:28;;;;;;;18.10;16.40;;;22.10;79.50;;;;;;4982086;28;20067;-88
2023/05/08 11:20:55;;;;;;;18.05;16.27;;;22.20;79.90;;;;;;4980295;28;20039;-88
2023/05/08 11:23:22;;;;;;;17.40;15.60;;;22.20;78.50;;;;;;4960933;28;20046;-88
2023/05/08 11:26:11;;;;;;;17.88;16.02;;;22.10;78.80;;;;;;4975966;28;20050;-88
2023/05/08 11:28:39;;;;;;;17.98;16.30;;;22.20;79.00;;;;;;4973251;28;20048;-88
2023/05/08 11:31:08;;;;;;;18.60;16.77;;;22.30;79.80;;;;;;4959251;28;20045;-88
2023/05/08 11:33:37;;;;;;;18.70;16.98;;;22.40;77.90;;;;;;4973858;28;20049;-88
2023/05/08 11:36:13;;;;;;;18.02;16.33;;;22.40;78.40;;;;;;4978447;28;20078;-88
2023/05/08 11:38:40;;;;;;;15.90;14.30;;;22.50;80.10;;;;;;4962640;28;20057;-88
2023/05/08 11:41:10;;;;;;;18.02;16.15;;;22.60;80.80;;;;;;4962318;28;20054;-88
2023/05/08 11:44:13;;;;;;;17.60;15.90;;;22.70;80.30;;;;;;4961664;28;20460;-88
2023/05/08 11:46:52;;;;;;;16.85;15.02;;;22.70;78.90;;;;;;4963018;28;20050;-88
2023/05/08 11:49:20;;;;;;;18.40;16.50;;;22.90;76.90;;;;;;4976999;28;20173;-88
2023/05/08 11:51:49;;;;;;;17.70;15.43;;;23.00;76.90;;;;;;4955395;28;20065;-88
2023/05/08 11:54:17;;;;;;;17.90;16.10;;;23.20;78.10;;;;;;4967889;28;20043;-88
2023/05/08 11:56:51;;;;;;;15.77;14.10;;;23.30;75.60;;;;;;4967467;28;20049;-88
2023/05/08 11:59:17;;;;;;;16.52;14.82;;;23.50;75.10;;;;;;4964255;28;20031;-89
2023/05/08 12:01:43;;;;;;;17.20;15.52;;;23.60;76.00;;;;;;4972280;28;20039;-88
2023/05/08 12:04:11;;;;;;;16.27;14.45;;;23.70;74.60;;;;;;4970365;28;20047;-89
2023/05/08 12:06:39;;;;;;;25.35;14.27;;;23.80;74.10;;;;;;4962567;28;20046;-88
2023/05/08 12:09:12;;;;;;;15.98;14.38;;;23.90;73.80;;;;;;4954065;28;20493;-89
2023/05/08 12:11:40;;;;;;;17.00;15.30;;;24.10;74.60;;;;;;4965009;28;20061;-89
2023/05/08 12:14:06;;;;;;;16.35;14.65;;;24.20;72.80;;;;;;4953927;28;20035;-89
2023/05/08 12:16:36;;;;;;;15.90;14.20;;;24.20;72.80;;;;;;4970949;28;20043;-89
2023/05/08 12:19:02;;;;;;;15.98;14.35;;;24.30;73.60;;;;;;4951664;28;20035;-89
2023/05/08 12:21:27;;;;;;;16.38;14.70;;;24.20;73.10;;;;;;4967577;28;20035;-89
2023/05/08 12:23:54;;;;;;;17.40;15.38;;;24.20;72.60;;;;;;4967542;28;20584;-89
2023/05/08 12:26:21;;;;;;;17.40;15.60;;;24.10;71.60;;;;;;4969590;28;20061;-88
2023/05/08 12:28:53;;;;;;;16.50;14.70;;;24.20;71.70;;;;;;4970365;28;20118;-88
2023/05/08 12:31:19;;;;;;;17.13;15.32;;;24.40;72.90;;;;;;4950580;28;20043;-89
2023/05/08 12:33:45;;;;;;;15.30;13.77;;;24.50;71.40;;;;;;4951010;28;20539;-89
2023/05/08 12:36:11;;;;;;;14.07;12.57;;;24.60;70.80;;;;;;4969623;28;20034;-89
2023/05/08 12:38:36;;;;;;;16.40;14.48;;;24.80;70.80;;;;;;4971424;28;20653;-88
2023/05/08 12:41:03;;;;;;;16.10;14.43;;;25.00;71.70;;;;;;4971023;28;20105;-89